Terminal Aerodrome Forecast
Issued by NWS

Home | Current Version | Previous Version | Text Only | Print | Product List | Glossary On
Versions: 1 2 3 4 5 6 7 8 9 10 11 12 13 14 15 16 17 18 19 20 21 22
000
FTUS43 KGRR 041559 AAA
TAFMKG
TAF AMD
KMKG 041559Z 0416/0512 23006KT P6SM BKN009
     FM041700 VRB04KT P6SM BKN020
     FM041800 27007KT P6SM VCTS BKN025CB
     FM050000 VRB02KT P6SM SCT050=

USA.gov is the U.S. government's official web portal to all federal, state and local government web resources and services.